Time;durP1;ratioP1;P1;durP2;ratioP2;P2;SDS_P1;SDS_P2;PMS_P1;PMS_P2;Temp;Humidity;BMP_temperature;BMP_pressure;BME280_temperature;BME280_humidity;BME280_pressure;Samples;Min_cycle;Max_cycle;Signal;HPM_P1;HPM_P2
2022/06/22 00:00:28;;;;;;;19.45;6.60;;;;;;;12.07;100.00;101203.53;5033447;28;20025;-66
2022/06/22 00:02:55;;;;;;;18.53;6.30;;;;;;;11.97;100.00;101207.03;5033527;28;20029;-65
2022/06/22 00:05:32;;;;;;;18.38;6.10;;;;;;;11.90;100.00;101208.75;5033595;28;20499;-66
2022/06/22 00:08:02;;;;;;;18.98;6.05;;;;;;;11.90;100.00;101203.44;5033411;28;20435;-62
2022/06/22 00:10:37;;;;;;;19.90;6.57;;;;;;;11.88;100.00;101196.34;5034549;28;20030;-62
2022/06/22 00:13:06;;;;;;;22.10;6.82;;;;;;;11.86;100.00;101194.56;5055288;28;20079;-61
2022/06/22 00:15:37;;;;;;;18.58;7.10;;;;;;;11.85;100.00;101198.13;5055483;28;20060;-62
2022/06/22 00:18:28;;;;;;;20.10;7.70;;;;;;;11.88;100.00;101193.72;5055640;28;20029;-62
2022/06/22 00:20:57;;;;;;;19.02;8.30;;;;;;;11.89;100.00;101182.25;5053230;28;20067;-64
2022/06/22 00:23:34;;;;;;;21.95;9.10;;;;;;;11.93;100.00;101178.75;5054932;28;20028;-66
2022/06/22 00:26:24;;;;;;;20.38;8.45;;;;;;;11.96;100.00;101176.13;5055079;28;20090;-66
2022/06/22 00:29:04;;;;;;;20.48;9.48;;;;;;;12.04;100.00;101182.31;5052454;28;20387;-63
2022/06/22 00:31:30;;;;;;;20.92;8.82;;;;;;;12.02;100.00;101181.44;5054798;28;20040;-62
2022/06/22 00:34:10;;;;;;;19.98;8.60;;;;;;;11.99;100.00;101187.59;5055190;28;20021;-63
2022/06/22 00:36:45;;;;;;;21.10;9.25;;;;;;;12.02;100.00;101179.66;5055040;28;20021;-63
2022/06/22 00:39:17;;;;;;;20.90;9.50;;;;;;;11.98;100.00;101177.00;5050374;28;20106;-65
2022/06/22 00:41:49;;;;;;;22.40;10.35;;;;;;;12.06;100.00;101167.34;5051128;28;20025;-65
2022/06/22 00:44:16;;;;;;;22.88;11.40;;;;;;;12.10;100.00;101161.16;5051138;28;20093;-63
2022/06/22 00:46:48;;;;;;;23.35;12.35;;;;;;;12.24;100.00;101174.44;5054801;28;20049;-64
2022/06/22 00:49:18;;;;;;;23.30;12.00;;;;;;;12.28;100.00;101188.59;5054946;28;20036;-65
2022/06/22 00:51:43;;;;;;;22.50;11.80;;;;;;;12.30;100.00;101194.78;5051046;28;20528;-64
2022/06/22 00:54:18;;;;;;;23.70;11.15;;;;;;;12.33;100.00;101190.41;5054550;28;20112;-63
2022/06/22 00:56:51;;;;;;;22.88;11.52;;;;;;;12.28;100.00;101173.56;5051016;28;20391;-63
2022/06/22 00:59:19;;;;;;;23.75;11.50;;;;;;;12.25;100.00;101175.34;5051270;28;20021;-66
2022/06/22 01:01:52;;;;;;;22.42;11.23;;;;;;;12.24;100.00;101162.97;5054435;28;20029;-62
2022/06/22 01:04:34;;;;;;;22.77;11.70;;;;;;;12.31;100.00;101164.75;5054397;28;20111;-65
2022/06/22 01:07:08;;;;;;;23.58;12.10;;;;;;;12.36;100.00;101163.88;5054250;28;20365;-62
2022/06/22 01:09:56;;;;;;;24.35;11.77;;;;;;;12.31;100.00;101154.16;5054287;28;20029;-64
2022/06/22 01:12:49;;;;;;;22.85;12.38;;;;;;;12.28;100.00;101167.41;5054440;28;20033;-63
2022/06/22 01:15:43;;;;;;;24.45;12.80;;;;;;;12.28;100.00;101188.59;5050734;28;20037;-63
2022/06/22 01:18:24;;;;;;;23.85;12.27;;;;;;;12.18;100.00;101191.22;5054692;28;20051;-63
2022/06/22 01:21:13;;;;;;;22.85;11.65;;;;;;;12.13;100.00;101197.38;5051378;28;20120;-62
2022/06/22 01:23:39;;;;;;;23.02;11.63;;;;;;;12.11;100.00;101200.00;5053936;28;20536;-61
2022/06/22 01:26:28;;;;;;;23.17;12.23;;;;;;;12.10;100.00;101195.63;5054408;28;20112;-65
2022/06/22 01:29:26;;;;;;;23.02;11.38;;;;;;;12.04;100.00;101182.31;5051867;28;20032;-63
2022/06/22 01:32:13;;;;;;;23.67;11.68;;;;;;;11.95;100.00;101177.88;5040894;28;20049;-61
2022/06/22 01:34:42;;;;;;;22.40;11.75;;;;;;;11.82;100.00;101168.97;5040167;28;20046;-61
2022/06/22 01:37:19;;;;;;;24.10;11.93;;;;;;;11.73;100.00;101160.97;5043253;28;20025;-66
2022/06/22 01:39:45;;;;;;;23.42;12.48;;;;;;;11.73;100.00;101153.03;5039970;28;20095;-66
2022/06/22 01:42:40;;;;;;;23.73;12.40;;;;;;;11.73;100.00;101145.09;5043249;28;20049;-66
2022/06/22 01:45:16;;;;;;;26.00;13.65;;;;;;;11.81;100.00;101151.31;5043035;28;20090;-64
2022/06/22 01:47:45;;;;;;;25.40;13.80;;;;;;;11.93;100.00;101152.25;5035688;28;20381;-64
2022/06/22 01:50:32;;;;;;;24.48;13.70;;;;;;;11.96;100.00;101168.19;5043203;28;20083;-64
2022/06/22 01:53:19;;;;;;;24.45;13.50;;;;;;;11.99;100.00;101161.13;5043119;28;20488;-66
2022/06/22 01:56:27;;;;;;;25.30;13.40;;;;;;;11.98;100.00;101159.34;5035453;28;20127;-64
2022/06/22 01:59:01;;;;;;;25.02;13.15;;;;;;;11.94;100.00;101154.03;4983034;28;20038;-65
2022/06/22 02:01:42;;;;;;;24.30;13.45;;;;;;;11.94;100.00;101159.31;4981913;28;20073;-64
2022/06/22 02:04:24;;;;;;;26.92;13.95;;;;;;;11.98;100.00;101153.16;4980704;28;20169;-65
2022/06/22 02:10:03;;;;;;;24.75;13.50;;;;;;;11.98;100.00;101155.81;5000292;28;20081;-64
2022/06/22 02:12:34;;;;;;;27.20;13.82;;;;;;;11.95;100.00;101150.50;4999714;28;20599;-66
2022/06/22 02:15:12;;;;;;;25.10;13.77;;;;;;;11.93;100.00;101153.16;5001272;28;20065;-66
2022/06/22 02:17:40;;;;;;;26.52;14.85;;;;;;;11.99;100.00;101149.66;5002720;28;20148;-66
2022/06/22 02:20:27;;;;;;;26.85;14.25;;;;;;;11.95;100.00;101151.38;4984402;28;20089;-67
2022/06/22 02:22:59;;;;;;;27.25;14.68;;;;;;;11.94;100.00;101154.03;4998310;28;20092;-65
2022/06/22 02:25:27;;;;;;;27.60;15.02;;;;;;;11.96;100.00;101162.88;5001758;28;20069;-66
2022/06/22 02:27:53;;;;;;;27.42;14.82;;;;;;;11.93;100.00;101157.53;5000433;28;20460;-62
2022/06/22 02:30:18;;;;;;;26.60;15.23;;;;;;;11.97;100.00;101148.72;5002859;28;20112;-62
2022/06/22 02:32:45;;;;;;;26.33;15.10;;;;;;;11.97;100.00;101135.50;5024065;28;20037;-62
2022/06/22 02:35:13;;;;;;;27.00;15.45;;;;;;;11.93;100.00;101131.97;5052747;28;20028;-62
2022/06/22 02:37:49;;;;;;;27.25;15.27;;;;;;;11.92;100.00;101123.97;5052662;28;20476;-63
2022/06/22 02:40:22;;;;;;;27.25;15.45;;;;;;;11.89;100.00;101121.31;5049226;28;20036;-61
2022/06/22 02:45:34;;;;;;;26.40;15.32;;;;;;;11.81;100.00;101130.13;5052455;28;20067;-62
2022/06/22 02:48:24;;;;;;;26.65;15.35;;;;;;;11.75;100.00;101126.56;5052321;28;20483;-62
2022/06/22 02:51:04;;;;;;;27.17;14.52;;;;;;;11.73;100.00;101117.72;5049533;28;20401;-62
2022/06/22 02:53:36;;;;;;;25.90;14.65;;;;;;;11.65;100.00;101123.88;5052540;28;20029;-62
2022/06/22 02:56:05;;;;;;;25.65;14.30;;;;;;;11.61;100.00;101127.38;5052668;28;20021;-62
2022/06/22 02:58:36;;;;;;;27.65;15.10;;;;;;;11.54;100.00;101144.13;5052516;28;20541;-62
2022/06/22 03:01:12;;;;;;;27.25;14.88;;;;;;;11.49;100.00;101141.44;5052186;28;20148;-62
2022/06/22 03:03:39;;;;;;;26.35;16.02;;;;;;;11.52;100.00;101151.19;5052399;28;20498;-61
2022/06/22 03:06:10;;;;;;;27.02;15.20;;;;;;;11.50;100.00;101153.81;5052483;28;20032;-62
2022/06/22 03:08:37;;;;;;;26.55;14.82;;;;;;;11.46;100.00;101144.09;5052429;28;20024;-62
2022/06/22 03:11:05;;;;;;;26.05;15.00;;;;;;;11.41;100.00;101147.56;5052354;28;20025;-63
2022/06/22 03:13:44;;;;;;;26.38;14.77;;;;;;;11.38;100.00;101153.72;5052691;28;20057;-63
2022/06/22 03:16:23;;;;;;;26.73;14.65;;;;;;;11.32;100.00;101149.28;5052801;28;20064;-64
2022/06/22 03:18:50;;;;;;;26.67;14.98;;;;;;;11.30;100.00;101145.75;5049258;28;20530;-64
2022/06/22 03:21:17;;;;;;;25.80;13.85;;;;;;;11.29;100.00;101137.81;5052221;28;20055;-62
2022/06/22 03:24:01;;;;;;;25.63;14.57;;;;;;;11.23;100.00;101133.34;5048138;28;20036;-62
2022/06/22 03:26:38;;;;;;;25.60;13.70;;;;;;;11.22;100.00;101136.88;5050003;28;20059;-65
2022/06/22 03:29:11;;;;;;;25.00;13.95;;;;;;;11.17;100.00;101128.03;5052169;28;20484;-62
2022/06/22 03:31:43;;;;;;;25.40;14.07;;;;;;;11.11;100.00;101125.31;5052171;28;20040;-64
2022/06/22 03:34:15;;;;;;;25.80;13.98;;;;;;;11.09;100.00;101127.97;5052057;28;20036;-63
2022/06/22 03:36:53;;;;;;;26.73;14.80;;;;;;;11.03;100.00;101137.63;5051920;28;20461;-67
2022/06/22 03:39:21;;;;;;;25.08;13.88;;;;;;;11.03;100.00;101135.88;5048999;28;20044;-63
2022/06/22 03:41:52;;;;;;;25.23;14.25;;;;;;;11.05;100.00;101123.53;5052181;28;20021;-62
2022/06/22 03:44:26;;;;;;;25.13;14.27;;;;;;;11.11;100.00;101131.53;5049036;28;20028;-65
2022/06/22 03:47:13;;;;;;;26.70;15.25;;;;;;;11.15;100.00;101127.13;5051600;28;20037;-64
2022/06/22 03:49:48;;;;;;;26.00;14.82;;;;;;;11.20;100.00;101120.13;5052117;28;20055;-63
2022/06/22 03:52:26;;;;;;;26.50;14.77;;;;;;;11.20;100.00;101113.91;5048087;28;20484;-66
2022/06/22 03:55:13;;;;;;;27.92;15.43;;;;;;;11.25;100.00;101110.44;5049095;28;20379;-63
2022/06/22 03:57:43;;;;;;;27.20;16.17;;;;;;;11.31;100.00;101122.81;5052081;28;20037;-64
2022/06/22 04:00:12;;;;;;;27.05;15.80;;;;;;;11.38;100.00;101116.69;5051985;28;20048;-64
2022/06/22 04:02:38;;;;;;;27.23;16.38;;;;;;;11.41;100.00;101123.75;5051898;28;20033;-65
2022/06/22 04:05:05;;;;;;;27.58;16.33;;;;;;;11.49;100.00;101117.63;5051761;28;20380;-62
2022/06/22 04:07:35;;;;;;;29.08;16.85;;;;;;;11.51;100.00;101113.22;5051817;28;20103;-63
2022/06/22 04:10:03;;;;;;;31.52;17.77;;;;;;;11.56;100.00;101109.69;5052108;28;20032;-63
2022/06/22 04:12:35;;;;;;;28.65;16.85;;;;;;;11.58;100.00;101114.13;5052231;28;20356;-64
2022/06/22 04:15:21;;;;;;;27.00;16.67;;;;;;;11.59;100.00;101110.63;5055375;28;20017;-61
2022/06/22 04:17:50;;;;;;;28.75;17.58;;;;;;;11.63;100.00;101109.72;5052028;28;20055;-62
2022/06/22 04:20:25;;;;;;;27.95;17.45;;;;;;;11.68;100.00;101120.38;5051711;28;20464;-61
2022/06/22 04:22:54;;;;;;;31.08;18.42;;;;;;;11.74;100.00;101125.69;5052181;28;20029;-63
2022/06/22 04:25:47;;;;;;;31.63;18.58;;;;;;;11.77;100.00;101117.75;5055135;28;20021;-62
2022/06/22 04:28:14;;;;;;;29.90;17.48;;;;;;;11.85;100.00;101118.66;5048443;28;20033;-62
2022/06/22 04:30:47;;;;;;;29.33;19.05;;;;;;;11.84;100.00;101127.47;5054983;28;20025;-62
2022/06/22 04:33:22;;;;;;;28.73;17.90;;;;;;;11.86;100.00;101125.72;5050949;28;20100;-62
2022/06/22 04:35:55;;;;;;;29.15;18.60;;;;;;;11.90;100.00;101129.28;5051726;28;20032;-62
2022/06/22 04:38:29;;;;;;;30.52;18.17;;;;;;;11.96;100.00;101136.38;5051933;28;20376;-62
2022/06/22 04:41:19;;;;;;;31.60;19.45;;;;;;;12.02;100.00;101133.75;5055050;28;20032;-62
2022/06/22 04:43:46;;;;;;;32.65;19.50;;;;;;;12.05;100.00;101136.41;5050816;28;20025;-61
2022/06/22 04:46:20;;;;;;;29.30;19.25;;;;;;;12.12;100.00;101143.50;5054537;28;20103;-62
2022/06/22 04:48:49;;;;;;;31.60;19.38;;;;;;;12.15;100.00;101148.81;5054797;28;20032;-62
2022/06/22 04:51:20;;;;;;;31.50;19.83;;;;;;;12.19;100.00;101147.06;5050978;28;20044;-62
2022/06/22 04:54:09;;;;;;;29.80;18.90;;;;;;;12.24;100.00;101150.59;5050923;28;20028;-62
2022/06/22 04:56:37;;;;;;;30.95;18.38;;;;;;;12.33;100.00;101152.38;5036572;28;20515;-61
2022/06/22 04:59:04;;;;;;;29.23;18.52;;;;;;;12.36;100.00;101141.78;5042637;28;20033;-61
2022/06/22 05:01:35;;;;;;;28.90;18.67;;;;;;;12.40;100.00;101146.19;5042572;28;20498;-61
2022/06/22 05:04:21;;;;;;;29.42;19.33;;;;;;;12.46;100.00;101153.28;5042305;28;20540;-61
2022/06/22 05:06:55;;;;;;;30.95;19.98;;;;;;;12.50;100.00;101155.06;5043908;28;20087;-62
2022/06/22 05:09:33;;;;;;;31.38;20.65;;;;;;;12.56;100.00;101152.41;5043819;28;20057;-62
2022/06/22 05:12:00;;;;;;;34.20;20.88;;;;;;;12.67;100.00;101160.41;5042374;28;20045;-62
2022/06/22 05:14:30;;;;;;;31.13;20.10;;;;;;;12.75;100.00;101158.59;5041540;28;20077;-62
2022/06/22 05:17:11;;;;;;;32.40;20.88;;;;;;;12.86;100.00;101164.81;5042840;28;20021;-61
2022/06/22 05:19:45;;;;;;;32.28;20.83;;;;;;;12.95;100.00;101169.22;5042735;28;20033;-62
2022/06/22 05:22:13;;;;;;;33.15;20.98;;;;;;;13.07;100.00;101160.38;5040500;28;20461;-61
2022/06/22 05:24:43;;;;;;;30.48;19.75;;;;;;;13.17;100.00;101155.94;5042744;28;20436;-61
2022/06/22 05:27:13;;;;;;;31.83;19.55;;;;;;;13.29;100.00;101163.00;5040926;28;20045;-62
2022/06/22 05:29:47;;;;;;;30.38;19.50;;;;;;;13.36;100.00;101159.47;5042967;28;20487;-62
2022/06/22 05:32:16;;;;;;;30.77;19.92;;;;;;;13.41;100.00;101170.97;5040047;28;20033;-62
2022/06/22 05:34:45;;;;;;;31.05;20.70;;;;;;;13.45;100.00;101164.75;5053490;28;20037;-61
2022/06/22 05:37:16;;;;;;;31.75;20.92;;;;;;;13.51;100.00;101169.19;5054012;28;20039;-61
2022/06/22 05:39:42;;;;;;;30.58;19.83;;;;;;;13.60;100.00;101166.47;5053910;28;20033;-61
2022/06/22 05:42:10;;;;;;;30.65;20.35;;;;;;;13.63;100.00;101163.84;5053648;28;20075;-61
2022/06/22 05:44:36;;;;;;;32.30;21.33;;;;;;;13.68;100.00;101177.09;5053707;28;20024;-62
2022/06/22 05:47:03;;;;;;;30.45;19.85;;;;;;;13.73;100.00;101172.66;5050227;28;20053;-68
2022/06/22 05:49:44;;;;;;;30.13;20.45;;;;;;;13.76;100.00;101167.31;5050350;28;20036;-68
2022/06/22 05:52:36;;;;;;;33.58;20.55;;;;;;;13.83;100.00;101176.16;5051652;28;20410;-67
2022/06/22 05:55:10;;;;;;;30.33;19.88;;;;;;;13.93;100.00;101183.22;5009043;28;20500;-69
2022/06/22 05:57:45;;;;;;;29.45;19.98;;;;;;;14.04;100.00;101193.81;5009481;28;20034;-69
2022/06/22 06:00:22;;;;;;;31.02;19.88;;;;;;;14.16;100.00;101196.41;5009632;28;20052;-67
2022/06/22 06:03:03;;;;;;;27.98;18.00;;;;;;;14.27;100.00;101198.97;5006469;28;20428;-69
2022/06/22 06:05:38;;;;;;;30.05;17.67;;;;;;;14.33;100.00;101208.72;5007394;28;20049;-67
2022/06/22 06:08:09;;;;;;;30.02;18.25;;;;;;;14.38;100.00;101206.94;5009344;28;20118;-67
2022/06/22 06:10:38;;;;;;;28.92;18.20;;;;;;;14.41;100.00;101207.78;5009375;28;20085;-67
2022/06/22 06:13:37;;;;;;;28.00;17.40;;;;;;;14.41;100.00;101213.09;5009193;28;20041;-67
2022/06/22 06:16:08;;;;;;;29.60;18.45;;;;;;;14.45;100.00;101208.66;5007484;28;20480;-67
2022/06/22 06:18:38;;;;;;;32.20;18.50;;;;;;;14.46;100.00;101199.78;5007323;28;20500;-67
2022/06/22 06:21:09;;;;;;;28.83;18.15;;;;;;;14.51;100.00;101205.09;5009435;28;20037;-68
2022/06/22 06:23:40;;;;;;;29.98;18.77;;;;;;;14.59;100.00;101206.81;5008708;28;20022;-68
2022/06/22 06:29:12;;;;;;;28.98;18.52;;;;;;;14.80;100.00;101204.91;5005664;28;20080;-66
2022/06/22 06:31:55;;;;;;;28.67;17.55;;;;;;;14.93;100.00;101219.88;5022215;28;20037;-67
2022/06/22 06:34:27;;;;;;;27.88;17.10;;;;;;;15.09;100.00;101217.13;5048063;28;20040;-70
2022/06/22 06:37:01;;;;;;;29.95;18.27;;;;;;;15.25;100.00;101212.53;5050606;28;20029;-66
2022/06/22 06:39:32;;;;;;;30.27;18.38;;;;;;;15.40;100.00;101216.81;5050780;28;20064;-65
2022/06/22 06:42:03;;;;;;;30.83;17.60;;;;;;;15.53;100.00;101213.13;5050101;28;20075;-69
2022/06/22 06:44:37;;;;;;;27.55;17.17;;;;;;;15.66;100.00;101205.91;5049712;28;20036;-71
2022/06/22 06:47:06;;;;;;;29.38;17.73;;;;;;;15.81;100.00;101202.22;5047739;28;20397;-69
2022/06/22 06:49:34;;;;;;;29.25;18.25;;;;;;;15.97;100.00;101189.56;5048076;28;20435;-69
2022/06/22 06:52:04;;;;;;;26.83;17.42;;;;;;;16.12;100.00;101183.16;5047686;28;20173;-71
2022/06/22 06:54:39;;;;;;;28.00;16.63;;;;;;;16.26;100.00;101178.53;5050186;28;20032;-68
2022/06/22 06:57:11;;;;;;;27.35;17.77;;;;;;;16.43;100.00;101174.75;5050512;28;20025;-70
2022/06/22 06:59:39;;;;;;;28.15;16.98;;;;;;;16.53;100.00;101176.38;5049241;28;20032;-68
2022/06/22 07:02:14;;;;;;;29.17;16.83;;;;;;;16.64;100.00;101182.41;5050533;28;20413;-69
2022/06/22 07:04:40;;;;;;;27.42;16.95;;;;;;;16.73;100.00;101179.59;5050380;28;20036;-69
2022/06/22 07:07:19;;;;;;;28.08;16.52;;;;;;;16.84;100.00;101175.88;5050586;28;20025;-71
2022/06/22 07:09:49;;;;;;;27.42;16.77;;;;;;;16.97;100.00;101172.13;5048582;28;20072;-69
2022/06/22 07:12:36;;;;;;;26.95;16.52;;;;;;;17.15;100.00;101170.91;5048908;28;20483;-70
2022/06/22 07:15:05;;;;;;;27.40;16.52;;;;;;;17.24;100.00;101176.13;5047030;28;20025;-70
2022/06/22 07:17:32;;;;;;;26.95;16.02;;;;;;;17.45;100.00;101184.63;5050630;28;20029;-70
2022/06/22 07:20:13;;;;;;;27.17;16.30;;;;;;;17.64;100.00;101173.59;5050458;28;20029;-72
2022/06/22 07:22:44;;;;;;;27.42;16.60;;;;;;;17.76;100.00;101168.88;5047580;28;20049;-64
2022/06/22 07:25:29;;;;;;;28.23;15.68;;;;;;;17.94;100.00;101169.47;5050552;28;20028;-65
2022/06/22 07:28:02;;;;;;;29.58;15.32;;;;;;;18.01;100.00;101176.41;5049216;28;20068;-64
2022/06/22 07:30:34;;;;;;;26.77;15.82;;;;;;;18.19;100.00;101171.56;5050085;28;20067;-65
2022/06/22 07:33:07;;;;;;;25.83;14.70;;;;;;;18.32;100.00;101151.69;5049783;28;20036;-64
2022/06/22 07:35:35;;;;;;;23.95;13.63;;;;;;;18.51;100.00;101153.91;5050138;28;20021;-64
2022/06/22 07:38:25;;;;;;;25.25;14.07;;;;;;;18.69;100.00;101148.09;5050350;28;20029;-64
2022/06/22 07:43:36;;;;;;;26.88;14.20;;;;;;;19.13;100.00;101146.16;5050056;28;20547;-63
2022/06/22 07:46:01;;;;;;;24.98;13.60;;;;;;;19.31;100.00;101160.84;5049879;28;20148;-64
2022/06/22 07:48:31;;;;;;;26.13;13.50;;;;;;;19.47;100.00;101166.66;5053320;28;20071;-64
2022/06/22 07:51:00;;;;;;;24.23;12.98;;;;;;;19.64;100.00;101173.34;5054150;28;20060;-64
2022/06/22 07:53:48;;;;;;;25.13;13.73;;;;;;;19.75;100.00;101155.16;5053800;28;20039;-63
2022/06/22 07:56:16;;;;;;;25.80;13.65;;;;;;;19.78;100.00;101159.56;5053526;28;20079;-65
2022/06/22 07:58:47;;;;;;;26.50;14.25;;;;;;;19.83;100.00;101154.94;5053595;28;20021;-63
2022/06/22 08:01:18;;;;;;;24.58;13.52;;;;;;;19.83;100.00;101158.53;5055063;28;20464;-64
2022/06/22 08:03:46;;;;;;;25.05;13.60;;;;;;;19.72;100.00;101155.25;5055719;28;20117;-64
2022/06/22 08:06:21;;;;;;;25.23;13.20;;;;;;;19.67;100.00;101149.13;5055520;28;20025;-64
2022/06/22 08:08:56;;;;;;;25.17;13.30;;;;;;;19.57;100.00;101161.03;5055546;28;20120;-64
2022/06/22 08:11:32;;;;;;;25.08;14.18;;;;;;;19.39;100.00;101162.44;5055442;28;20029;-63
2022/06/22 08:14:10;;;;;;;24.17;13.25;;;;;;;19.26;100.00;101167.25;5055820;28;20838;-63
2022/06/22 08:16:40;;;;;;;25.65;13.82;;;;;;;19.31;100.00;101168.88;5052314;28;20468;-64
2022/06/22 08:19:06;;;;;;;25.23;13.77;;;;;;;19.45;100.00;101165.81;5055324;28;20120;-64
2022/06/22 08:21:36;;;;;;;25.00;13.73;;;;;;;19.62;100.00;101170.69;5055437;28;20444;-64
2022/06/22 08:24:03;;;;;;;26.08;13.68;;;;;;;19.60;100.00;101171.66;5051462;28;20029;-64
2022/06/22 08:26:31;;;;;;;24.98;12.85;;;;;;;19.57;100.00;101171.75;5055276;28;20373;-64
2022/06/22 08:28:58;;;;;;;24.10;11.45;;;;;;;19.61;99.70;101171.63;5055298;28;20036;-63
2022/06/22 08:31:46;;;;;;;22.70;10.88;;;;;;;19.63;99.65;101172.47;5055383;28;20028;-63
2022/06/22 08:34:16;;;;;;;22.27;10.82;;;;;;;19.68;98.01;101178.56;5052700;28;20507;-64
2022/06/22 08:36:45;;;;;;;22.02;11.02;;;;;;;19.76;97.33;101183.72;5054645;28;20021;-64
2022/06/22 08:39:34;;;;;;;23.98;10.60;;;;;;;19.95;98.87;101177.84;5055164;28;20082;-64
2022/06/22 08:42:51;;;;;;;21.58;9.73;;;;;;;20.15;98.41;101175.47;5050871;28;20055;-68
2022/06/22 08:45:52;;;;;;;21.30;9.68;;;;;;;20.46;95.00;101177.19;5040879;28;20034;-65
2022/06/22 08:48:17;;;;;;;21.17;8.90;;;;;;;20.69;90.29;101187.25;5040757;28;20201;-65
2022/06/22 08:51:04;;;;;;;19.42;7.85;;;;;;;20.82;89.85;101176.94;5043361;28;20124;-68
2022/06/22 08:53:57;;;;;;;19.17;6.80;;;;;;;20.95;83.08;101171.19;5044234;28;20036;-65
2022/06/22 08:56:38;;;;;;;19.42;6.45;;;;;;;21.02;78.50;101173.59;5042825;28;20041;-68
2022/06/22 08:59:31;;;;;;;18.83;6.72;;;;;;;21.21;80.68;101168.47;5036789;28;20039;-65
2022/06/22 09:02:30;;;;;;;18.13;6.20;;;;;;;21.17;79.62;101165.94;5040651;28;20369;-68
2022/06/22 09:05:47;;;;;;;19.42;6.47;;;;;;;21.18;78.64;101155.13;5040947;28;20091;-68
2022/06/22 09:08:26;;;;;;;17.40;5.78;;;;;;;21.38;73.85;101165.19;4959540;28;20414;-66
2022/06/22 09:11:12;;;;;;;20.35;6.50;;;;;;;21.43;74.12;101170.38;4961306;28;20035;-66
2022/06/22 09:13:43;;;;;;;17.17;6.20;;;;;;;21.57;72.96;101168.13;4961970;28;20047;-67
2022/06/22 09:16:27;;;;;;;18.38;6.57;;;;;;;21.81;76.28;101168.13;4960656;28;20039;-66
2022/06/22 09:19:27;;;;;;;18.30;6.35;;;;;;;21.99;73.01;101171.97;4957437;28;20031;-64
2022/06/22 09:22:16;;;;;;;19.27;6.30;;;;;;;22.15;73.78;101185.72;4924081;29;20055;-71
2022/06/22 09:25:23;;;;;;;18.77;6.72;;;;;;;22.36;71.43;101188.53;4926851;29;20061;-65
2022/06/22 09:28:00;;;;;;;18.77;6.45;;;;;;;22.58;70.88;101184.00;4883825;29;20049;-65
2022/06/22 09:30:50;;;;;;;19.00;6.47;;;;;;;22.57;67.74;101184.97;4891392;29;20164;-65
2022/06/22 09:33:49;;;;;;;17.52;6.30;;;;;;;22.57;69.26;101184.97;4886753;29;20044;-64
2022/06/22 09:36:50;;;;;;;19.95;6.47;;;;;;;22.67;66.22;101193.53;4893463;29;20041;-64
2022/06/22 09:39:21;;;;;;;18.85;6.43;;;;;;;22.82;66.22;101197.44;4929894;28;20041;-65
2022/06/22 09:42:15;;;;;;;18.25;6.15;;;;;;;22.90;66.25;101186.34;4970497;28;20039;-64
2022/06/22 09:45:09;;;;;;;18.63;5.65;;;;;;;22.97;66.31;101191.41;4970773;28;20541;-64
2022/06/22 09:47:50;;;;;;;18.90;5.80;;;;;;;23.16;62.51;101193.34;4970434;28;20065;-64
2022/06/22 09:50:41;;;;;;;17.45;5.25;;;;;;;23.38;61.96;101187.03;4970997;28;20038;-67
2022/06/22 09:53:20;;;;;;;16.35;5.25;;;;;;;23.49;56.83;101187.44;4970388;28;20058;-67
2022/06/22 09:58:56;;;;;;;16.63;4.63;;;;;;;23.84;54.45;101179.56;4979352;28;20252;-65
2022/06/22 10:01:21;;;;;;;16.30;4.10;;;;;;;24.17;48.67;101176.25;5006874;28;20064;-72
2022/06/22 10:04:08;;;;;;;16.30;4.50;;;;;;;24.27;48.08;101172.16;5051318;28;20063;-70
2022/06/22 10:06:48;;;;;;;13.68;4.10;;;;;;;24.63;46.18;101170.50;5050487;28;20278;-70
2022/06/22 10:09:49;;;;;;;14.10;3.80;;;;;;;25.91;43.89;101172.84;5051357;28;20428;-70
2022/06/22 10:12:40;;;;;;;15.25;4.32;;;;;;;28.02;37.21;101164.13;5006537;28;20040;-70
2022/06/22 10:15:49;;;;;;;13.70;3.90;;;;;;;30.13;33.80;101173.41;5009787;28;20052;-70
2022/06/22 10:18:45;;;;;;;13.70;3.95;;;;;;;31.60;31.30;101168.66;4948339;29;20085;-66
2022/06/22 10:21:29;;;;;;;13.70;3.67;;;;;;;32.69;29.83;101168.97;4950654;29;20046;-68
2022/06/22 10:24:11;;;;;;;14.15;3.72;;;;;;;33.28;26.78;101164.00;4947668;29;20139;-64
2022/06/22 10:27:07;;;;;;;15.93;4.20;;;;;;;33.57;26.53;101153.22;4950155;29;20035;-64
2022/06/22 10:29:59;;;;;;;13.32;3.88;;;;;;;33.43;26.24;101157.16;4946270;29;20153;-66
2022/06/22 10:32:42;;;;;;;17.67;4.30;;;;;;;34.07;26.29;101159.81;4950551;28;20043;-67
2022/06/22 10:35:22;;;;;;;12.88;3.67;;;;;;;34.32;24.76;101159.31;4949817;29;20066;-67
2022/06/22 10:37:57;;;;;;;15.60;4.05;;;;;;;35.03;24.60;101158.25;4949246;29;20101;-66
2022/06/22 10:47:09;;;;;;;14.23;4.15;;;;;;;34.90;24.32;101146.69;4877329;29;20089;-65
2022/06/22 10:49:58;;;;;;;14.95;4.00;;;;;;;35.32;24.22;101153.78;4885231;29;20068;-66
2022/06/22 10:52:56;;;;;;;15.65;4.00;;;;;;;35.28;24.40;101155.91;4893666;29;20040;-69
2022/06/22 10:55:24;;;;;;;12.75;3.75;;;;;;;35.81;21.67;101150.88;4906748;29;20075;-69
2022/06/22 10:58:07;;;;;;;17.13;4.28;;;;;;;36.49;22.28;101149.66;4912449;29;20396;-65
2022/06/22 11:00:57;;;;;;;12.55;3.72;;;;;;;36.91;22.45;101144.41;4912164;29;20036;-65
2022/06/22 11:03:57;;;;;;;14.80;3.85;;;;;;;36.84;22.18;101154.31;4912003;29;20044;-67
2022/06/22 11:07:01;;;;;;;13.20;3.85;;;;;;;36.64;21.40;101140.69;4909574;29;20032;-67
2022/06/22 11:09:42;;;;;;;14.90;3.90;;;;;;;36.77;20.79;101137.59;4900210;29;20087;-67
2022/06/22 11:12:23;;;;;;;14.02;3.55;;;;;;;37.20;21.03;101148.78;4901120;29;20044;-68
2022/06/22 11:15:23;;;;;;;15.57;4.15;;;;;;;38.04;21.45;101146.38;4904413;29;20583;-67
2022/06/22 11:18:07;;;;;;;13.70;3.83;;;;;;;37.42;21.62;101141.88;4904044;29;20048;-66
2022/06/22 11:20:38;;;;;;;11.80;3.67;;;;;;;37.56;19.98;101137.69;4918507;29;20048;-66
2022/06/22 11:23:10;;;;;;;15.40;3.80;;;;;;;37.05;20.50;101134.72;4929554;29;20039;-68
2022/06/22 11:31:45;;;;;;;12.73;3.67;;;;;;;37.78;19.50;101133.50;4945005;29;20095;-67
2022/06/22 11:34:32;;;;;;;13.23;3.53;;;;;;;37.83;20.92;101139.38;4945607;29;20142;-65
2022/06/22 11:37:23;;;;;;;13.77;3.75;;;;;;;37.87;19.49;101144.59;4944369;29;20079;-66
2022/06/22 11:40:35;;;;;;;12.73;3.70;;;;;;;38.16;20.13;101138.66;4948877;28;20039;-65
2022/06/22 11:43:13;;;;;;;15.23;3.50;;;;;;;38.47;19.21;101146.34;4922741;29;20040;-65
2022/06/22 11:46:05;;;;;;;10.93;3.20;;;;;;;38.76;19.34;101151.41;4945611;28;20503;-65
2022/06/22 11:48:54;;;;;;;10.90;3.70;;;;;;;38.66;17.58;101157.09;4955874;29;20045;-65
2022/06/22 11:51:47;;;;;;;11.90;3.42;;;;;;;39.09;19.03;101156.06;4954666;29;20483;-65
2022/06/22 11:54:34;;;;;;;15.25;3.58;;;;;;;39.40;17.93;101156.25;4985926;28;20145;-65
2022/06/22 11:57:34;;;;;;;11.90;3.50;;;;;;;39.88;18.17;101137.81;4990449;28;20042;-65
2022/06/22 12:00:12;;;;;;;13.15;4.30;;;;;;;38.63;18.83;101148.28;4990523;28;20038;-65
2022/06/22 12:02:37;;;;;;;12.35;3.53;;;;;;;39.15;17.84;101144.38;4991286;28;20039;-66
2022/06/22 12:05:17;;;;;;;11.70;3.50;;;;;;;39.54;17.57;101138.94;4994338;28;20030;-65
2022/06/22 12:08:09;;;;;;;12.68;3.65;;;;;;;39.74;18.06;101144.09;4992084;28;20046;-65
2022/06/22 12:10:47;;;;;;;12.57;3.38;;;;;;;39.83;17.79;101131.09;4994216;28;20031;-66
2022/06/22 12:13:38;;;;;;;10.55;3.70;;;;;;;38.91;18.85;101131.41;4994014;28;20042;-65
2022/06/22 12:16:30;;;;;;;14.20;3.47;;;;;;;39.55;18.91;101143.44;4990902;28;20030;-65
2022/06/22 12:19:12;;;;;;;12.98;3.30;;;;;;;39.42;17.22;101134.81;5005118;28;20041;-66
2022/06/22 12:22:11;;;;;;;11.13;3.10;;;;;;;39.66;17.52;101122.00;5052794;28;20102;-65